sensor_id;sensor_type;location;lat;lon;timestamp;P1;durP1;ratioP1;P2;durP2;ratioP2
51216;SDS011;37283;49.760;8.648;2022-10-16T00:00:47;2.45;;;0.77;;
51216;SDS011;37283;49.760;8.648;2022-10-16T00:03:13;1.17;;;0.70;;
51216;SDS011;37283;49.760;8.648;2022-10-16T00:05:41;2.80;;;0.80;;
51216;SDS011;37283;49.760;8.648;2022-10-16T00:08:09;2.10;;;0.70;;
51216;SDS011;37283;49.760;8.648;2022-10-16T00:10:39;3.53;;;0.93;;
51216;SDS011;37283;49.760;8.648;2022-10-16T00:13:06;1.17;;;0.70;;
51216;SDS011;37283;49.760;8.648;2022-10-16T00:15:33;1.55;;;0.70;;
51216;SDS011;37283;49.760;8.648;2022-10-16T00:18:03;2.80;;;0.90;;
51216;SDS011;37283;49.760;8.648;2022-10-16T00:20:30;1.45;;;0.70;;
51216;SDS011;37283;49.760;8.648;2022-10-16T00:22:59;2.17;;;0.70;;
51216;SDS011;37283;49.760;8.648;2022-10-16T00:25:25;0.88;;;0.50;;
51216;SDS011;37283;49.760;8.648;2022-10-16T00:27:52;0.85;;;0.70;;
51216;SDS011;37283;49.760;8.648;2022-10-16T00:30:18;2.17;;;0.60;;
51216;SDS011;37283;49.760;8.648;2022-10-16T00:32:45;1.60;;;0.50;;
51216;SDS011;37283;49.760;8.648;2022-10-16T00:35:11;2.50;;;0.70;;
51216;SDS011;37283;49.760;8.648;2022-10-16T00:37:38;0.60;;;0.50;;
51216;SDS011;37283;49.760;8.648;2022-10-16T00:40:04;0.52;;;0.50;;
51216;SDS011;37283;49.760;8.648;2022-10-16T00:42:31;1.15;;;0.57;;
51216;SDS011;37283;49.760;8.648;2022-10-16T00:44:58;0.70;;;0.40;;
51216;SDS011;37283;49.760;8.648;2022-10-16T00:47:27;0.80;;;0.50;;
51216;SDS011;37283;49.760;8.648;2022-10-16T00:50:02;1.23;;;0.55;;
51216;SDS011;37283;49.760;8.648;2022-10-16T00:52:46;1.73;;;0.43;;
51216;SDS011;37283;49.760;8.648;2022-10-16T00:57:40;1.60;;;0.50;;
51216;SDS011;37283;49.760;8.648;2022-10-16T01:00:09;0.75;;;0.50;;
51216;SDS011;37283;49.760;8.648;2022-10-16T01:02:41;1.13;;;0.65;;
51216;SDS011;37283;49.760;8.648;2022-10-16T01:05:08;2.45;;;0.80;;
51216;SDS011;37283;49.760;8.648;2022-10-16T01:10:27;4.03;;;0.70;;
51216;SDS011;37283;49.760;8.648;2022-10-16T01:13:06;2.40;;;0.93;;
51216;SDS011;37283;49.760;8.648;2022-10-16T01:15:35;3.67;;;0.65;;
51216;SDS011;37283;49.760;8.648;2022-10-16T01:20:51;2.70;;;0.60;;
51216;SDS011;37283;49.760;8.648;2022-10-16T01:23:31;1.75;;;0.60;;
51216;SDS011;37283;49.760;8.648;2022-10-16T01:29:03;2.47;;;0.55;;
51216;SDS011;37283;49.760;8.648;2022-10-16T01:31:35;2.03;;;0.73;;
51216;SDS011;37283;49.760;8.648;2022-10-16T01:34:05;2.83;;;0.85;;
51216;SDS011;37283;49.760;8.648;2022-10-16T01:36:35;1.67;;;0.70;;
51216;SDS011;37283;49.760;8.648;2022-10-16T01:39:04;2.72;;;0.80;;
51216;SDS011;37283;49.760;8.648;2022-10-16T01:41:33;1.23;;;0.97;;
51216;SDS011;37283;49.760;8.648;2022-10-16T01:44:04;2.63;;;1.20;;
51216;SDS011;37283;49.760;8.648;2022-10-16T01:46:34;2.05;;;0.95;;
51216;SDS011;37283;49.760;8.648;2022-10-16T01:49:02;2.17;;;0.88;;
51216;SDS011;37283;49.760;8.648;2022-10-16T01:51:29;2.38;;;0.82;;
51216;SDS011;37283;49.760;8.648;2022-10-16T01:53:56;1.58;;;1.00;;
51216;SDS011;37283;49.760;8.648;2022-10-16T01:56:24;3.47;;;1.40;;
51216;SDS011;37283;49.760;8.648;2022-10-16T01:59:10;2.63;;;1.20;;
51216;SDS011;37283;49.760;8.648;2022-10-16T02:01:40;4.30;;;1.30;;
51216;SDS011;37283;49.760;8.648;2022-10-16T02:04:15;2.85;;;1.40;;
51216;SDS011;37283;49.760;8.648;2022-10-16T02:06:45;2.30;;;1.40;;
51216;SDS011;37283;49.760;8.648;2022-10-16T02:09:12;2.90;;;1.45;;
51216;SDS011;37283;49.760;8.648;2022-10-16T02:11:38;2.88;;;1.60;;
51216;SDS011;37283;49.760;8.648;2022-10-16T02:14:05;2.67;;;1.38;;
51216;SDS011;37283;49.760;8.648;2022-10-16T02:16:37;4.82;;;1.38;;
51216;SDS011;37283;49.760;8.648;2022-10-16T02:19:11;4.88;;;1.85;;
51216;SDS011;37283;49.760;8.648;2022-10-16T02:21:55;6.47;;;2.88;;
51216;SDS011;37283;49.760;8.648;2022-10-16T02:24:33;7.03;;;2.67;;
51216;SDS011;37283;49.760;8.648;2022-10-16T02:29:54;5.32;;;4.10;;
51216;SDS011;37283;49.760;8.648;2022-10-16T02:32:27;5.78;;;3.50;;
51216;SDS011;37283;49.760;8.648;2022-10-16T02:34:56;7.03;;;4.72;;
51216;SDS011;37283;49.760;8.648;2022-10-16T02:37:24;8.18;;;4.55;;
51216;SDS011;37283;49.760;8.648;2022-10-16T02:39:51;7.40;;;5.72;;
51216;SDS011;37283;49.760;8.648;2022-10-16T02:42:18;8.25;;;6.15;;
51216;SDS011;37283;49.760;8.648;2022-10-16T02:44:44;9.38;;;5.72;;
51216;SDS011;37283;49.760;8.648;2022-10-16T02:47:11;8.90;;;6.25;;
51216;SDS011;37283;49.760;8.648;2022-10-16T02:49:38;7.78;;;6.60;;
51216;SDS011;37283;49.760;8.648;2022-10-16T02:52:05;11.18;;;6.38;;
51216;SDS011;37283;49.760;8.648;2022-10-16T02:54:31;5.63;;;5.10;;
51216;SDS011;37283;49.760;8.648;2022-10-16T02:56:57;7.45;;;5.68;;
51216;SDS011;37283;49.760;8.648;2022-10-16T02:59:24;6.43;;;5.25;;
51216;SDS011;37283;49.760;8.648;2022-10-16T03:01:50;9.18;;;6.07;;
51216;SDS011;37283;49.760;8.648;2022-10-16T03:04:17;8.93;;;5.97;;
51216;SDS011;37283;49.760;8.648;2022-10-16T03:06:43;10.73;;;5.30;;
51216;SDS011;37283;49.760;8.648;2022-10-16T03:09:10;10.02;;;5.85;;
51216;SDS011;37283;49.760;8.648;2022-10-16T03:11:37;7.93;;;5.25;;
51216;SDS011;37283;49.760;8.648;2022-10-16T03:14:03;8.20;;;5.07;;
51216;SDS011;37283;49.760;8.648;2022-10-16T03:16:30;11.80;;;5.07;;
51216;SDS011;37283;49.760;8.648;2022-10-16T03:18:56;7.75;;;4.95;;
51216;SDS011;37283;49.760;8.648;2022-10-16T03:21:23;6.63;;;4.63;;
51216;SDS011;37283;49.760;8.648;2022-10-16T03:23:49;14.65;;;5.43;;
51216;SDS011;37283;49.760;8.648;2022-10-16T03:26:15;6.57;;;4.75;;
51216;SDS011;37283;49.760;8.648;2022-10-16T03:28:42;8.13;;;4.45;;
51216;SDS011;37283;49.760;8.648;2022-10-16T03:31:08;4.07;;;3.67;;
51216;SDS011;37283;49.760;8.648;2022-10-16T03:33:35;7.00;;;4.20;;
51216;SDS011;37283;49.760;8.648;2022-10-16T03:36:01;7.78;;;4.20;;
51216;SDS011;37283;49.760;8.648;2022-10-16T03:38:28;5.75;;;4.43;;
51216;SDS011;37283;49.760;8.648;2022-10-16T03:40:54;8.05;;;4.28;;
51216;SDS011;37283;49.760;8.648;2022-10-16T03:43:21;6.55;;;4.07;;
51216;SDS011;37283;49.760;8.648;2022-10-16T03:45:49;6.28;;;3.88;;
51216;SDS011;37283;49.760;8.648;2022-10-16T03:48:17;5.32;;;3.72;;
51216;SDS011;37283;49.760;8.648;2022-10-16T03:50:47;7.82;;;3.05;;
51216;SDS011;37283;49.760;8.648;2022-10-16T03:53:14;4.97;;;3.00;;
51216;SDS011;37283;49.760;8.648;2022-10-16T03:55:41;4.22;;;1.70;;
51216;SDS011;37283;49.760;8.648;2022-10-16T03:58:08;1.90;;;1.23;;
51216;SDS011;37283;49.760;8.648;2022-10-16T04:00:35;5.75;;;2.00;;
51216;SDS011;37283;49.760;8.648;2022-10-16T04:03:01;3.95;;;1.90;;
51216;SDS011;37283;49.760;8.648;2022-10-16T04:05:27;3.50;;;1.15;;
51216;SDS011;37283;49.760;8.648;2022-10-16T04:07:54;7.93;;;1.30;;
51216;SDS011;37283;49.760;8.648;2022-10-16T04:10:21;7.22;;;1.42;;
51216;SDS011;37283;49.760;8.648;2022-10-16T04:12:47;3.65;;;1.40;;
51216;SDS011;37283;49.760;8.648;2022-10-16T04:15:14;3.00;;;1.23;;
51216;SDS011;37283;49.760;8.648;2022-10-16T04:17:40;7.07;;;1.38;;
51216;SDS011;37283;49.760;8.648;2022-10-16T04:20:07;2.97;;;1.55;;
51216;SDS011;37283;49.760;8.648;2022-10-16T04:22:33;4.63;;;1.27;;
51216;SDS011;37283;49.760;8.648;2022-10-16T04:25:00;6.43;;;1.20;;
51216;SDS011;37283;49.760;8.648;2022-10-16T04:27:26;5.72;;;1.38;;
51216;SDS011;37283;49.760;8.648;2022-10-16T04:29:53;6.40;;;1.35;;
51216;SDS011;37283;49.760;8.648;2022-10-16T04:32:20;4.72;;;1.23;;
51216;SDS011;37283;49.760;8.648;2022-10-16T04:34:46;5.93;;;1.77;;
51216;SDS011;37283;49.760;8.648;2022-10-16T04:37:12;5.18;;;1.40;;
51216;SDS011;37283;49.760;8.648;2022-10-16T04:39:39;4.88;;;1.30;;
51216;SDS011;37283;49.760;8.648;2022-10-16T04:42:05;4.07;;;1.70;;
51216;SDS011;37283;49.760;8.648;2022-10-16T04:44:33;10.55;;;1.90;;
51216;SDS011;37283;49.760;8.648;2022-10-16T04:47:00;5.43;;;1.75;;
51216;SDS011;37283;49.760;8.648;2022-10-16T04:49:26;5.03;;;1.40;;
51216;SDS011;37283;49.760;8.648;2022-10-16T04:51:55;3.30;;;1.50;;
51216;SDS011;37283;49.760;8.648;2022-10-16T04:54:21;4.93;;;1.30;;
51216;SDS011;37283;49.760;8.648;2022-10-16T04:56:48;4.60;;;1.77;;
51216;SDS011;37283;49.760;8.648;2022-10-16T04:59:16;6.28;;;1.95;;
51216;SDS011;37283;49.760;8.648;2022-10-16T05:01:44;3.10;;;1.50;;
51216;SDS011;37283;49.760;8.648;2022-10-16T05:04:11;4.57;;;1.60;;
51216;SDS011;37283;49.760;8.648;2022-10-16T05:06:38;2.83;;;1.40;;
51216;SDS011;37283;49.760;8.648;2022-10-16T05:09:05;4.75;;;1.88;;
51216;SDS011;37283;49.760;8.648;2022-10-16T05:11:31;3.10;;;1.80;;
51216;SDS011;37283;49.760;8.648;2022-10-16T05:13:58;6.32;;;1.80;;
51216;SDS011;37283;49.760;8.648;2022-10-16T05:16:25;4.18;;;1.65;;
51216;SDS011;37283;49.760;8.648;2022-10-16T05:18:51;3.20;;;1.50;;
51216;SDS011;37283;49.760;8.648;2022-10-16T05:21:29;6.05;;;1.60;;
51216;SDS011;37283;49.760;8.648;2022-10-16T05:23:55;4.35;;;1.90;;
51216;SDS011;37283;49.760;8.648;2022-10-16T05:26:22;2.97;;;1.65;;
51216;SDS011;37283;49.760;8.648;2022-10-16T05:28:49;2.78;;;1.55;;
51216;SDS011;37283;49.760;8.648;2022-10-16T05:31:16;2.80;;;1.60;;
51216;SDS011;37283;49.760;8.648;2022-10-16T05:33:42;4.47;;;1.70;;
51216;SDS011;37283;49.760;8.648;2022-10-16T05:36:10;3.47;;;2.30;;
51216;SDS011;37283;49.760;8.648;2022-10-16T05:38:37;6.45;;;3.28;;
51216;SDS011;37283;49.760;8.648;2022-10-16T05:41:04;7.25;;;2.55;;
51216;SDS011;37283;49.760;8.648;2022-10-16T05:43:31;4.75;;;3.72;;
51216;SDS011;37283;49.760;8.648;2022-10-16T05:45:59;6.15;;;1.73;;
51216;SDS011;37283;49.760;8.648;2022-10-16T05:48:27;4.18;;;1.60;;
51216;SDS011;37283;49.760;8.648;2022-10-16T05:51:00;1.67;;;1.35;;
51216;SDS011;37283;49.760;8.648;2022-10-16T05:53:30;3.03;;;1.50;;
51216;SDS011;37283;49.760;8.648;2022-10-16T05:55:58;5.27;;;1.67;;
51216;SDS011;37283;49.760;8.648;2022-10-16T05:58:25;6.97;;;1.90;;
51216;SDS011;37283;49.760;8.648;2022-10-16T06:00:55;4.78;;;1.30;;
51216;SDS011;37283;49.760;8.648;2022-10-16T06:03:22;4.90;;;1.38;;
51216;SDS011;37283;49.760;8.648;2022-10-16T06:05:49;2.88;;;1.50;;
51216;SDS011;37283;49.760;8.648;2022-10-16T06:08:16;4.15;;;1.50;;
51216;SDS011;37283;49.760;8.648;2022-10-16T06:10:42;7.25;;;1.67;;
51216;SDS011;37283;49.760;8.648;2022-10-16T06:13:10;2.53;;;1.25;;
51216;SDS011;37283;49.760;8.648;2022-10-16T06:15:37;3.33;;;1.58;;
51216;SDS011;37283;49.760;8.648;2022-10-16T06:18:05;4.82;;;1.50;;
51216;SDS011;37283;49.760;8.648;2022-10-16T06:20:31;5.20;;;2.00;;
51216;SDS011;37283;49.760;8.648;2022-10-16T06:22:58;3.50;;;1.40;;
51216;SDS011;37283;49.760;8.648;2022-10-16T06:25:24;6.90;;;2.28;;
51216;SDS011;37283;49.760;8.648;2022-10-16T06:27:51;2.78;;;1.70;;
51216;SDS011;37283;49.760;8.648;2022-10-16T06:30:17;4.63;;;1.60;;
51216;SDS011;37283;49.760;8.648;2022-10-16T06:32:43;5.88;;;1.70;;
51216;SDS011;37283;49.760;8.648;2022-10-16T06:35:10;4.75;;;1.48;;
51216;SDS011;37283;49.760;8.648;2022-10-16T06:37:36;8.95;;;1.67;;
51216;SDS011;37283;49.760;8.648;2022-10-16T06:40:03;2.33;;;1.20;;
51216;SDS011;37283;49.760;8.648;2022-10-16T06:42:30;3.65;;;1.33;;
51216;SDS011;37283;49.760;8.648;2022-10-16T06:44:56;3.85;;;1.60;;
51216;SDS011;37283;49.760;8.648;2022-10-16T06:47:23;6.07;;;1.48;;
51216;SDS011;37283;49.760;8.648;2022-10-16T06:49:49;3.72;;;1.50;;
51216;SDS011;37283;49.760;8.648;2022-10-16T06:52:19;6.60;;;1.58;;
51216;SDS011;37283;49.760;8.648;2022-10-16T06:54:46;2.63;;;1.40;;
51216;SDS011;37283;49.760;8.648;2022-10-16T06:57:12;2.83;;;1.60;;
51216;SDS011;37283;49.760;8.648;2022-10-16T06:59:38;5.93;;;1.45;;
51216;SDS011;37283;49.760;8.648;2022-10-16T07:02:07;6.37;;;2.40;;
51216;SDS011;37283;49.760;8.648;2022-10-16T07:04:35;1.77;;;1.20;;
51216;SDS011;37283;49.760;8.648;2022-10-16T07:07:02;5.15;;;1.60;;
51216;SDS011;37283;49.760;8.648;2022-10-16T07:09:33;2.53;;;1.40;;
51216;SDS011;37283;49.760;8.648;2022-10-16T07:12:00;1.95;;;1.40;;
51216;SDS011;37283;49.760;8.648;2022-10-16T07:14:26;4.72;;;1.58;;
51216;SDS011;37283;49.760;8.648;2022-10-16T07:16:52;3.92;;;1.30;;
51216;SDS011;37283;49.760;8.648;2022-10-16T07:19:19;5.32;;;1.60;;
51216;SDS011;37283;49.760;8.648;2022-10-16T07:21:45;2.92;;;1.35;;
51216;SDS011;37283;49.760;8.648;2022-10-16T07:24:13;2.95;;;1.15;;
51216;SDS011;37283;49.760;8.648;2022-10-16T07:26:43;2.80;;;1.30;;
51216;SDS011;37283;49.760;8.648;2022-10-16T07:29:14;1.67;;;1.17;;
51216;SDS011;37283;49.760;8.648;2022-10-16T07:31:42;3.28;;;1.35;;
51216;SDS011;37283;49.760;8.648;2022-10-16T07:34:09;2.42;;;1.27;;
51216;SDS011;37283;49.760;8.648;2022-10-16T07:36:36;3.92;;;1.35;;
51216;SDS011;37283;49.760;8.648;2022-10-16T07:39:03;5.75;;;2.22;;
51216;SDS011;37283;49.760;8.648;2022-10-16T07:41:30;5.55;;;1.33;;
51216;SDS011;37283;49.760;8.648;2022-10-16T07:43:58;4.28;;;2.10;;
51216;SDS011;37283;49.760;8.648;2022-10-16T07:46:28;4.10;;;2.30;;
51216;SDS011;37283;49.760;8.648;2022-10-16T07:48:54;4.90;;;1.35;;
51216;SDS011;37283;49.760;8.648;2022-10-16T07:51:21;3.28;;;1.30;;
51216;SDS011;37283;49.760;8.648;2022-10-16T07:53:48;6.40;;;1.90;;
51216;SDS011;37283;49.760;8.648;2022-10-16T07:56:15;4.85;;;1.58;;
51216;SDS011;37283;49.760;8.648;2022-10-16T07:58:43;4.53;;;1.70;;
51216;SDS011;37283;49.760;8.648;2022-10-16T08:01:10;8.00;;;1.85;;
51216;SDS011;37283;49.760;8.648;2022-10-16T08:03:43;3.25;;;1.35;;
51216;SDS011;37283;49.760;8.648;2022-10-16T08:06:11;3.00;;;1.33;;
51216;SDS011;37283;49.760;8.648;2022-10-16T08:08:37;3.25;;;1.27;;
51216;SDS011;37283;49.760;8.648;2022-10-16T08:11:04;5.53;;;1.70;;
51216;SDS011;37283;49.760;8.648;2022-10-16T08:13:31;2.15;;;1.52;;
51216;SDS011;37283;49.760;8.648;2022-10-16T08:15:57;5.07;;;1.67;;
51216;SDS011;37283;49.760;8.648;2022-10-16T08:18:24;3.03;;;1.30;;
51216;SDS011;37283;49.760;8.648;2022-10-16T08:20:57;3.22;;;1.13;;
51216;SDS011;37283;49.760;8.648;2022-10-16T08:23:25;2.28;;;1.13;;
51216;SDS011;37283;49.760;8.648;2022-10-16T08:25:55;4.38;;;1.60;;
51216;SDS011;37283;49.760;8.648;2022-10-16T08:28:22;4.03;;;1.45;;
51216;SDS011;37283;49.760;8.648;2022-10-16T08:30:49;6.57;;;1.42;;
51216;SDS011;37283;49.760;8.648;2022-10-16T08:33:16;4.93;;;1.48;;
51216;SDS011;37283;49.760;8.648;2022-10-16T08:35:42;3.65;;;1.60;;
51216;SDS011;37283;49.760;8.648;2022-10-16T08:38:09;6.05;;;2.08;;
51216;SDS011;37283;49.760;8.648;2022-10-16T08:40:36;5.07;;;1.60;;
51216;SDS011;37283;49.760;8.648;2022-10-16T08:48:43;3.38;;;1.52;;
51216;SDS011;37283;49.760;8.648;2022-10-16T08:51:17;2.45;;;1.60;;
51216;SDS011;37283;49.760;8.648;2022-10-16T08:53:51;3.47;;;1.85;;
51216;SDS011;37283;49.760;8.648;2022-10-16T08:56:20;5.20;;;1.85;;
51216;SDS011;37283;49.760;8.648;2022-10-16T08:58:47;6.80;;;1.80;;
51216;SDS011;37283;49.760;8.648;2022-10-16T09:01:15;5.60;;;2.20;;
51216;SDS011;37283;49.760;8.648;2022-10-16T09:25:29;2.80;;;1.42;;
51216;SDS011;37283;49.760;8.648;2022-10-16T09:27:56;4.35;;;2.30;;
51216;SDS011;37283;49.760;8.648;2022-10-16T09:30:23;5.93;;;1.90;;
51216;SDS011;37283;49.760;8.648;2022-10-16T09:32:53;3.42;;;1.90;;
51216;SDS011;37283;49.760;8.648;2022-10-16T09:35:21;2.05;;;1.80;;
51216;SDS011;37283;49.760;8.648;2022-10-16T09:37:51;2.88;;;1.90;;
51216;SDS011;37283;49.760;8.648;2022-10-16T09:40:32;3.57;;;1.90;;
51216;SDS011;37283;49.760;8.648;2022-10-16T09:43:02;3.13;;;1.98;;
51216;SDS011;37283;49.760;8.648;2022-10-16T09:45:29;5.63;;;2.10;;
51216;SDS011;37283;49.760;8.648;2022-10-16T09:47:56;3.88;;;1.92;;
51216;SDS011;37283;49.760;8.648;2022-10-16T09:50:26;2.63;;;1.75;;
51216;SDS011;37283;49.760;8.648;2022-10-16T09:53:13;2.35;;;1.35;;
51216;SDS011;37283;49.760;8.648;2022-10-16T09:55:49;3.05;;;1.40;;
51216;SDS011;37283;49.760;8.648;2022-10-16T09:58:17;2.47;;;1.50;;
51216;SDS011;37283;49.760;8.648;2022-10-16T10:00:53;6.13;;;1.70;;
51216;SDS011;37283;49.760;8.648;2022-10-16T10:03:33;3.88;;;1.80;;
51216;SDS011;37283;49.760;8.648;2022-10-16T10:06:02;3.00;;;1.50;;
51216;SDS011;37283;49.760;8.648;2022-10-16T10:09:29;2.28;;;1.20;;
51216;SDS011;37283;49.760;8.648;2022-10-16T10:14:05;2.15;;;1.48;;
51216;SDS011;37283;49.760;8.648;2022-10-16T10:16:34;2.70;;;1.20;;
51216;SDS011;37283;49.760;8.648;2022-10-16T10:19:01;1.65;;;1.20;;
51216;SDS011;37283;49.760;8.648;2022-10-16T10:21:27;4.10;;;1.20;;
51216;SDS011;37283;49.760;8.648;2022-10-16T10:23:56;3.28;;;1.30;;
51216;SDS011;37283;49.760;8.648;2022-10-16T10:40:00;3.08;;;1.50;;
51216;SDS011;37283;49.760;8.648;2022-10-16T10:42:44;1.48;;;1.10;;
51216;SDS011;37283;49.760;8.648;2022-10-16T10:47:56;2.63;;;1.30;;
51216;SDS011;37283;49.760;8.648;2022-10-16T10:50:31;3.42;;;1.27;;
51216;SDS011;37283;49.760;8.648;2022-10-16T10:53:10;2.72;;;1.48;;
51216;SDS011;37283;49.760;8.648;2022-10-16T10:58:29;4.53;;;1.40;;
51216;SDS011;37283;49.760;8.648;2022-10-16T11:01:09;3.20;;;1.40;;
51216;SDS011;37283;49.760;8.648;2022-10-16T11:03:42;2.53;;;1.30;;
51216;SDS011;37283;49.760;8.648;2022-10-16T11:06:32;3.03;;;1.52;;
51216;SDS011;37283;49.760;8.648;2022-10-16T11:09:10;7.22;;;1.60;;
51216;SDS011;37283;49.760;8.648;2022-10-16T11:12:01;3.87;;;1.43;;
51216;SDS011;37283;49.760;8.648;2022-10-16T11:14:41;2.83;;;1.48;;
51216;SDS011;37283;49.760;8.648;2022-10-16T11:20:20;2.28;;;1.30;;
51216;SDS011;37283;49.760;8.648;2022-10-16T11:22:53;2.70;;;1.35;;
51216;SDS011;37283;49.760;8.648;2022-10-16T11:25:32;3.92;;;1.45;;
51216;SDS011;37283;49.760;8.648;2022-10-16T11:28:10;3.03;;;1.60;;
51216;SDS011;37283;49.760;8.648;2022-10-16T11:30:41;3.78;;;1.67;;
51216;SDS011;37283;49.760;8.648;2022-10-16T11:33:24;3.78;;;1.42;;
51216;SDS011;37283;49.760;8.648;2022-10-16T11:36:00;2.10;;;1.45;;
51216;SDS011;37283;49.760;8.648;2022-10-16T11:38:51;3.05;;;1.50;;
51216;SDS011;37283;49.760;8.648;2022-10-16T11:47:30;4.32;;;1.65;;
51216;SDS011;37283;49.760;8.648;2022-10-16T11:50:23;3.42;;;1.60;;
51216;SDS011;37283;49.760;8.648;2022-10-16T11:53:12;2.00;;;1.20;;
51216;SDS011;37283;49.760;8.648;2022-10-16T11:55:43;3.30;;;1.40;;
51216;SDS011;37283;49.760;8.648;2022-10-16T11:58:17;5.78;;;1.92;;
51216;SDS011;37283;49.760;8.648;2022-10-16T12:00:55;5.78;;;1.98;;
51216;SDS011;37283;49.760;8.648;2022-10-16T12:06:10;2.65;;;1.48;;
51216;SDS011;37283;49.760;8.648;2022-10-16T12:08:46;4.65;;;1.75;;
51216;SDS011;37283;49.760;8.648;2022-10-16T12:11:23;2.65;;;1.40;;
51216;SDS011;37283;49.760;8.648;2022-10-16T12:13:51;4.30;;;1.50;;
51216;SDS011;37283;49.760;8.648;2022-10-16T12:16:22;2.72;;;1.40;;
51216;SDS011;37283;49.760;8.648;2022-10-16T12:18:49;5.40;;;1.90;;
51216;SDS011;37283;49.760;8.648;2022-10-16T12:21:41;5.38;;;1.50;;
51216;SDS011;37283;49.760;8.648;2022-10-16T12:24:19;3.03;;;1.60;;
51216;SDS011;37283;49.760;8.648;2022-10-16T12:26:47;4.22;;;1.52;;
51216;SDS011;37283;49.760;8.648;2022-10-16T12:32:00;6.85;;;1.50;;
51216;SDS011;37283;49.760;8.648;2022-10-16T12:34:44;3.53;;;2.10;;
51216;SDS011;37283;49.760;8.648;2022-10-16T12:39:40;3.95;;;2.15;;
51216;SDS011;37283;49.760;8.648;2022-10-16T12:42:19;2.92;;;1.67;;
51216;SDS011;37283;49.760;8.648;2022-10-16T12:44:54;4.40;;;2.00;;
51216;SDS011;37283;49.760;8.648;2022-10-16T12:47:35;6.38;;;1.40;;
51216;SDS011;37283;49.760;8.648;2022-10-16T12:50:21;6.40;;;1.95;;
51216;SDS011;37283;49.760;8.648;2022-10-16T12:52:49;5.43;;;1.90;;
51216;SDS011;37283;49.760;8.648;2022-10-16T12:55:16;3.45;;;1.40;;
51216;SDS011;37283;49.760;8.648;2022-10-16T12:57:58;3.13;;;1.70;;
51216;SDS011;37283;49.760;8.648;2022-10-16T13:09:02;5.43;;;2.00;;
51216;SDS011;37283;49.760;8.648;2022-10-16T13:11:57;4.68;;;2.00;;
51216;SDS011;37283;49.760;8.648;2022-10-16T13:14:41;4.80;;;1.90;;
51216;SDS011;37283;49.760;8.648;2022-10-16T13:17:30;3.45;;;1.60;;
51216;SDS011;37283;49.760;8.648;2022-10-16T13:20:23;5.40;;;1.67;;
51216;SDS011;37283;49.760;8.648;2022-10-16T13:23:10;2.90;;;1.70;;
51216;SDS011;37283;49.760;8.648;2022-10-16T13:28:21;5.07;;;1.77;;
51216;SDS011;37283;49.760;8.648;2022-10-16T13:30:52;3.10;;;1.75;;
51216;SDS011;37283;49.760;8.648;2022-10-16T13:35:57;4.95;;;1.75;;
51216;SDS011;37283;49.760;8.648;2022-10-16T13:38:24;4.50;;;1.80;;
51216;SDS011;37283;49.760;8.648;2022-10-16T13:41:27;4.88;;;1.60;;
51216;SDS011;37283;49.760;8.648;2022-10-16T13:43:47;8.32;;;1.77;;
51216;SDS011;37283;49.760;8.648;2022-10-16T13:46:19;3.10;;;1.70;;
51216;SDS011;37283;49.760;8.648;2022-10-16T13:48:57;4.68;;;1.70;;
51216;SDS011;37283;49.760;8.648;2022-10-16T13:51:24;6.85;;;1.83;;
51216;SDS011;37283;49.760;8.648;2022-10-16T13:53:51;4.78;;;1.75;;
51216;SDS011;37283;49.760;8.648;2022-10-16T13:56:19;4.55;;;1.80;;
51216;SDS011;37283;49.760;8.648;2022-10-16T13:58:57;4.70;;;1.70;;
51216;SDS011;37283;49.760;8.648;2022-10-16T14:01:40;6.95;;;1.90;;
51216;SDS011;37283;49.760;8.648;2022-10-16T14:04:08;5.72;;;2.10;;
51216;SDS011;37283;49.760;8.648;2022-10-16T14:06:36;8.95;;;2.10;;
51216;SDS011;37283;49.760;8.648;2022-10-16T14:09:06;4.10;;;1.70;;
51216;SDS011;37283;49.760;8.648;2022-10-16T14:11:36;6.78;;;1.92;;
51216;SDS011;37283;49.760;8.648;2022-10-16T14:14:14;4.25;;;1.88;;
51216;SDS011;37283;49.760;8.648;2022-10-16T14:16:42;10.63;;;2.35;;
51216;SDS011;37283;49.760;8.648;2022-10-16T14:19:13;12.02;;;2.00;;
51216;SDS011;37283;49.760;8.648;2022-10-16T14:21:44;11.55;;;1.90;;
51216;SDS011;37283;49.760;8.648;2022-10-16T14:24:11;8.82;;;1.70;;
51216;SDS011;37283;49.760;8.648;2022-10-16T14:26:42;5.75;;;1.98;;
51216;SDS011;37283;49.760;8.648;2022-10-16T14:29:19;10.93;;;2.15;;
51216;SDS011;37283;49.760;8.648;2022-10-16T14:31:56;8.15;;;2.08;;
51216;SDS011;37283;49.760;8.648;2022-10-16T14:34:35;13.88;;;2.33;;
51216;SDS011;37283;49.760;8.648;2022-10-16T14:37:14;4.95;;;1.70;;
51216;SDS011;37283;49.760;8.648;2022-10-16T14:39:53;7.32;;;1.88;;
51216;SDS011;37283;49.760;8.648;2022-10-16T14:42:21;6.13;;;2.05;;
51216;SDS011;37283;49.760;8.648;2022-10-16T14:44:50;6.85;;;1.88;;
51216;SDS011;37283;49.760;8.648;2022-10-16T14:47:21;9.65;;;2.08;;
51216;SDS011;37283;49.760;8.648;2022-10-16T14:49:52;10.38;;;2.00;;
51216;SDS011;37283;49.760;8.648;2022-10-16T14:54:48;5.95;;;1.80;;
51216;SDS011;37283;49.760;8.648;2022-10-16T14:57:19;4.47;;;1.95;;
51216;SDS011;37283;49.760;8.648;2022-10-16T14:59:48;2.33;;;1.77;;
51216;SDS011;37283;49.760;8.648;2022-10-16T15:04:47;10.70;;;1.95;;
51216;SDS011;37283;49.760;8.648;2022-10-16T15:07:13;14.77;;;2.22;;
51216;SDS011;37283;49.760;8.648;2022-10-16T15:09:40;6.35;;;1.92;;
51216;SDS011;37283;49.760;8.648;2022-10-16T15:12:14;10.70;;;2.70;;
51216;SDS011;37283;49.760;8.648;2022-10-16T15:14:40;11.23;;;2.20;;
51216;SDS011;37283;49.760;8.648;2022-10-16T15:17:08;15.90;;;2.30;;
51216;SDS011;37283;49.760;8.648;2022-10-16T15:19:36;13.55;;;2.33;;
51216;SDS011;37283;49.760;8.648;2022-10-16T15:22:02;11.90;;;2.20;;
51216;SDS011;37283;49.760;8.648;2022-10-16T15:24:29;8.52;;;2.25;;
51216;SDS011;37283;49.760;8.648;2022-10-16T15:26:55;5.75;;;2.35;;
51216;SDS011;37283;49.760;8.648;2022-10-16T15:29:21;7.50;;;1.90;;
51216;SDS011;37283;49.760;8.648;2022-10-16T15:31:48;9.75;;;2.00;;
51216;SDS011;37283;49.760;8.648;2022-10-16T15:34:15;6.22;;;1.73;;
51216;SDS011;37283;49.760;8.648;2022-10-16T15:36:41;7.43;;;2.17;;
51216;SDS011;37283;49.760;8.648;2022-10-16T15:39:12;5.70;;;1.90;;
51216;SDS011;37283;49.760;8.648;2022-10-16T15:41:39;6.18;;;2.50;;
51216;SDS011;37283;49.760;8.648;2022-10-16T15:44:07;7.25;;;2.25;;
51216;SDS011;37283;49.760;8.648;2022-10-16T15:46:34;5.10;;;2.25;;
51216;SDS011;37283;49.760;8.648;2022-10-16T15:49:00;5.47;;;1.92;;
51216;SDS011;37283;49.760;8.648;2022-10-16T15:51:27;7.75;;;1.85;;
51216;SDS011;37283;49.760;8.648;2022-10-16T15:53:55;5.27;;;2.40;;
51216;SDS011;37283;49.760;8.648;2022-10-16T15:56:23;7.85;;;2.08;;
51216;SDS011;37283;49.760;8.648;2022-10-16T15:58:51;4.97;;;2.17;;
51216;SDS011;37283;49.760;8.648;2022-10-16T16:01:19;6.40;;;2.17;;
51216;SDS011;37283;49.760;8.648;2022-10-16T16:03:46;7.07;;;1.98;;
51216;SDS011;37283;49.760;8.648;2022-10-16T16:06:13;5.25;;;1.90;;
51216;SDS011;37283;49.760;8.648;2022-10-16T16:08:40;6.45;;;2.13;;
51216;SDS011;37283;49.760;8.648;2022-10-16T16:11:08;5.10;;;1.88;;
51216;SDS011;37283;49.760;8.648;2022-10-16T16:13:36;5.68;;;1.90;;
51216;SDS011;37283;49.760;8.648;2022-10-16T16:16:10;6.78;;;2.05;;
51216;SDS011;37283;49.760;8.648;2022-10-16T16:18:38;6.93;;;2.15;;
51216;SDS011;37283;49.760;8.648;2022-10-16T16:21:05;6.68;;;2.55;;
51216;SDS011;37283;49.760;8.648;2022-10-16T16:23:32;7.45;;;2.00;;
51216;SDS011;37283;49.760;8.648;2022-10-16T16:26:12;6.97;;;1.80;;
51216;SDS011;37283;49.760;8.648;2022-10-16T16:28:40;6.53;;;2.20;;
51216;SDS011;37283;49.760;8.648;2022-10-16T16:31:07;3.67;;;1.90;;
51216;SDS011;37283;49.760;8.648;2022-10-16T16:33:34;11.35;;;2.72;;
51216;SDS011;37283;49.760;8.648;2022-10-16T16:36:02;7.32;;;2.08;;
51216;SDS011;37283;49.760;8.648;2022-10-16T16:38:30;11.10;;;2.65;;
51216;SDS011;37283;49.760;8.648;2022-10-16T16:40:58;10.75;;;2.25;;
51216;SDS011;37283;49.760;8.648;2022-10-16T16:43:25;14.88;;;2.33;;